createdAt,value
2022-08-05T00:01:54.478Z,100.00
2022-08-05T00:04:22.745Z,100.00
2022-08-05T00:06:51.761Z,100.00
2022-08-05T00:09:20.478Z,100.00
2022-08-05T00:11:56.042Z,100.00
2022-08-05T00:14:29.125Z,100.00
2022-08-05T00:17:02.098Z,100.00
2022-08-05T00:19:33.460Z,100.00
2022-08-05T00:22:04.323Z,100.00
2022-08-05T00:24:32.672Z,100.00
2022-08-05T00:27:04.522Z,100.00
2022-08-05T00:29:38.520Z,100.00
2022-08-05T00:32:12.362Z,100.00
2022-08-05T00:35:03.982Z,100.00
2022-08-05T00:37:51.395Z,100.00
2022-08-05T00:40:27.571Z,100.00
2022-08-05T00:43:00.020Z,100.00
2022-08-05T00:45:43.186Z,100.00
2022-08-05T00:48:17.831Z,100.00
2022-08-05T00:50:55.810Z,100.00
2022-08-05T00:54:00.439Z,100.00
2022-08-05T00:56:13.365Z,100.00
2022-08-05T00:58:45.775Z,100.00
2022-08-05T01:01:16.185Z,100.00
2022-08-05T01:04:11.775Z,100.00
2022-08-05T01:06:46.688Z,100.00
2022-08-05T01:09:17.389Z,100.00
2022-08-05T01:12:04.523Z,100.00
2022-08-05T01:14:56.279Z,100.00
2022-08-05T01:17:53.806Z,100.00
2022-08-05T01:20:27.803Z,100.00
2022-08-05T01:23:14.293Z,100.00
2022-08-05T01:25:58.276Z,100.00
2022-08-05T01:28:29.898Z,100.00
2022-08-05T01:31:20.982Z,100.00
2022-08-05T01:34:22.444Z,100.00
2022-08-05T01:37:24.834Z,100.00
2022-08-05T01:39:59.232Z,100.00
2022-08-05T01:42:30.189Z,100.00
2022-08-05T01:45:02.309Z,100.00
2022-08-05T01:47:39.683Z,100.00
2022-08-05T01:50:29.833Z,100.00
2022-08-05T01:53:03.382Z,100.00
2022-08-05T01:55:36.280Z,100.00
2022-08-05T01:58:29.709Z,100.00
2022-08-05T02:00:59.688Z,100.00
2022-08-05T02:03:40.705Z,100.00
2022-08-05T02:06:23.906Z,100.00
2022-08-05T02:08:59.324Z,100.00
2022-08-05T02:11:42.167Z,100.00
2022-08-05T02:14:48.936Z,100.00
2022-08-05T02:18:09.925Z,100.00
2022-08-05T02:20:23.491Z,100.00
2022-08-05T02:23:01.458Z,100.00
2022-08-05T02:25:35.987Z,100.00
2022-08-05T02:28:32.135Z,100.00
2022-08-05T02:31:21.205Z,100.00
2022-08-05T02:33:58.087Z,100.00
2022-08-05T02:36:31.629Z,100.00
2022-08-05T02:39:03.172Z,100.00
2022-08-05T02:41:43.178Z,100.00
2022-08-05T02:44:24.699Z,100.00
2022-08-05T02:47:00.208Z,100.00
2022-08-05T02:49:37.883Z,100.00
2022-08-05T02:52:30.201Z,100.00
2022-08-05T02:55:05.249Z,100.00
2022-08-05T02:58:09.833Z,100.00
2022-08-05T03:00:25.409Z,100.00
2022-08-05T03:02:57.448Z,100.00
2022-08-05T03:06:55.040Z,100.00
2022-08-05T03:08:16.560Z,100.00
2022-08-05T03:11:55.461Z,100.00
2022-08-05T03:13:51.768Z,100.00
2022-08-05T03:16:22.530Z,100.00
2022-08-05T03:18:51.316Z,100.00
2022-08-05T03:21:20.184Z,100.00
2022-08-05T03:23:50.483Z,100.00
2022-08-05T03:26:32.040Z,100.00
2022-08-05T03:29:01.546Z,100.00
2022-08-05T03:31:56.691Z,100.00
2022-08-05T03:34:19.683Z,100.00
2022-08-05T03:36:52.646Z,100.00
2022-08-05T03:39:26.635Z,100.00
2022-08-05T03:41:57.397Z,100.00
2022-08-05T03:44:29.069Z,100.00
2022-08-05T03:46:57.402Z,100.00
2022-08-05T03:49:31.095Z,100.00
2022-08-05T03:52:50.258Z,100.00
2022-08-05T03:56:05.654Z,100.00
2022-08-05T03:58:19.275Z,100.00
2022-08-05T04:00:51.697Z,100.00
2022-08-05T04:03:26.752Z,100.00
2022-08-05T04:05:59.204Z,100.00
2022-08-05T04:08:36.814Z,100.00
2022-08-05T04:11:08.568Z,100.00
2022-08-05T04:13:49.930Z,100.00
2022-08-05T04:16:25.058Z,100.00
2022-08-05T04:18:54.933Z,100.00
2022-08-05T04:22:10.006Z,100.00
2022-08-05T04:24:19.107Z,100.00
2022-08-05T04:26:51.194Z,100.00
2022-08-05T04:29:19.788Z,100.00
2022-08-05T04:31:48.537Z,100.00
2022-08-05T04:34:33.800Z,100.00
2022-08-05T04:37:06.946Z,100.00
2022-08-05T04:39:35.285Z,100.00
2022-08-05T04:42:06.978Z,100.00
2022-08-05T04:44:35.177Z,100.00
2022-08-05T04:47:08.891Z,100.00
2022-08-05T04:50:01.391Z,100.00
2022-08-05T04:52:27.810Z,100.00
2022-08-05T04:54:57.798Z,100.00
2022-08-05T04:57:28.781Z,100.00
2022-08-05T04:59:58.950Z,100.00
2022-08-05T05:02:41.183Z,100.00
2022-08-05T05:05:16.847Z,100.00
2022-08-05T05:08:00.963Z,100.00
2022-08-05T05:10:33.302Z,100.00
2022-08-05T05:13:03.669Z,100.00
2022-08-05T05:15:56.595Z,100.00
2022-08-05T05:18:31.354Z,100.00
2022-08-05T05:21:04.194Z,100.00
2022-08-05T05:24:01.851Z,100.00
2022-08-05T05:26:28.343Z,100.00
2022-08-05T05:29:01.083Z,100.00
2022-08-05T05:34:01.963Z,100.00
2022-08-05T05:36:32.323Z,100.00
2022-08-05T05:39:04.469Z,100.00
2022-08-05T05:41:40.478Z,100.00
2022-08-05T05:44:35.505Z,100.00
2022-08-05T05:47:04.006Z,100.00
2022-08-05T05:49:33.255Z,100.00
2022-08-05T05:52:06.088Z,100.00
2022-08-05T05:54:51.086Z,100.00
2022-08-05T05:57:20.437Z,100.00
2022-08-05T05:59:48.747Z,100.00
2022-08-05T06:02:32.809Z,100.00
2022-08-05T06:05:10.575Z,100.00
2022-08-05T06:08:01.363Z,100.00
2022-08-05T06:10:36.780Z,100.00
2022-08-05T06:13:05.871Z,100.00
2022-08-05T06:16:28.194Z,100.00
2022-08-05T06:18:31.286Z,100.00
2022-08-05T06:21:00.719Z,100.00
2022-08-05T06:23:32.169Z,100.00
2022-08-05T06:26:20.949Z,100.00
2022-08-05T06:28:49.769Z,100.00
2022-08-05T06:31:21.874Z,100.00
2022-08-05T06:34:07.881Z,100.00
2022-08-05T06:36:57.136Z,100.00
2022-08-05T06:39:28.050Z,100.00
2022-08-05T06:42:04.099Z,100.00
2022-08-05T06:44:32.868Z,100.00
2022-08-05T06:47:02.277Z,100.00
2022-08-05T06:50:02.068Z,100.00
2022-08-05T06:52:37.690Z,100.00
2022-08-05T06:55:07.958Z,100.00
2022-08-05T06:58:02.699Z,100.00
2022-08-05T07:00:25.527Z,100.00
2022-08-05T07:02:56.514Z,100.00
2022-08-05T07:05:37.435Z,99.95
2022-08-05T07:08:07.060Z,99.86
2022-08-05T07:10:52.518Z,92.33
2022-08-05T07:13:59.491Z,96.40
2022-08-05T07:18:01.614Z,88.04
2022-08-05T07:22:27.839Z,93.58
2022-08-05T07:25:23.620Z,90.87
2022-08-05T07:27:57.275Z,89.49
2022-08-05T07:30:32.269Z,89.59
2022-08-05T07:33:05.323Z,92.01
2022-08-05T07:36:05.387Z,86.49
2022-08-05T07:38:34.006Z,87.60
2022-08-05T07:42:08.920Z,85.63
2022-08-05T07:43:59.717Z,82.51
2022-08-05T07:46:30.477Z,82.59
2022-08-05T07:49:05.575Z,81.34
2022-08-05T07:51:48.516Z,78.37
2022-08-05T07:54:31.147Z,77.25
2022-08-05T07:57:23.694Z,83.12
2022-08-05T07:59:51.687Z,72.83
2022-08-05T08:02:30.786Z,71.10
2022-08-05T08:05:17.446Z,74.81
2022-08-05T08:07:59.473Z,69.97
2022-08-05T08:10:30.131Z,69.18
2022-08-05T08:12:59.777Z,69.03
2022-08-05T08:16:34.455Z,65.72
2022-08-05T08:18:21.031Z,67.79
2022-08-05T08:21:02.082Z,66.74
2022-08-05T08:24:01.409Z,67.53
2022-08-05T08:26:26.869Z,68.17
2022-08-05T08:29:09.739Z,70.72
2022-08-05T08:31:49.776Z,73.78
2022-08-05T08:34:30.750Z,66.66
2022-08-05T08:37:04.627Z,65.61
2022-08-05T08:39:37.424Z,68.10
2022-08-05T08:42:33.614Z,68.99
2022-08-05T08:45:18.522Z,68.81
2022-08-05T08:48:07.549Z,65.91
2022-08-05T08:51:22.157Z,64.72
2022-08-05T08:53:44.502Z,61.32
2022-08-05T08:56:13.921Z,67.44
2022-08-05T08:58:44.385Z,63.37
2022-08-05T09:01:18.442Z,61.33
2022-08-05T09:03:54.586Z,62.19
2022-08-05T09:06:31.866Z,61.86
2022-08-05T09:09:02.003Z,60.06
2022-08-05T09:11:52.111Z,60.13
2022-08-05T09:14:57.403Z,60.87
2022-08-05T09:17:43.158Z,61.80
2022-08-05T09:20:05.709Z,60.02
2022-08-05T09:23:19.460Z,61.29
2022-08-05T09:26:06.239Z,61.95
2022-08-05T09:28:37.502Z,60.36
2022-08-05T09:31:43.534Z,58.11
2022-08-05T09:34:06.370Z,60.63
2022-08-05T09:36:54.916Z,59.82
2022-08-05T09:39:41.167Z,59.74
2022-08-05T09:42:23.970Z,60.08
2022-08-05T09:45:17.939Z,59.53
2022-08-05T09:47:55.598Z,58.38
2022-08-05T09:50:43.707Z,60.80
2022-08-05T09:53:22.807Z,60.19
2022-08-05T09:56:12.883Z,60.41
2022-08-05T09:58:42.291Z,58.31
2022-08-05T10:01:15.254Z,58.88
2022-08-05T10:04:28.635Z,58.76
2022-08-05T10:06:59.352Z,58.13
2022-08-05T10:09:29.910Z,60.35
2022-08-05T10:12:30.643Z,59.45
2022-08-05T10:15:34.947Z,58.28
2022-08-05T10:18:35.518Z,60.73
2022-08-05T10:21:11.971Z,60.58
2022-08-05T10:23:56.090Z,61.53
2022-08-05T10:26:32.614Z,58.55
2022-08-05T10:29:02.888Z,60.57
2022-08-05T10:32:53.917Z,57.73
2022-08-05T10:34:25.860Z,56.47
2022-08-05T10:36:58.617Z,57.16
2022-08-05T10:40:03.507Z,58.47
2022-08-05T10:42:32.339Z,56.75
2022-08-05T10:45:21.126Z,54.77
2022-08-05T10:48:29.197Z,57.11
2022-08-05T10:51:22.022Z,54.31
2022-08-05T10:54:23.104Z,53.37
2022-08-05T10:56:57.907Z,54.49
2022-08-05T11:00:03.611Z,54.93
2022-08-05T11:02:37.637Z,53.19
2022-08-05T11:05:10.492Z,55.38
2022-08-05T11:08:02.967Z,53.64
2022-08-05T11:10:50.047Z,53.65
2022-08-05T11:13:54.967Z,54.38
2022-08-05T11:16:47.962Z,53.23
2022-08-05T11:20:17.660Z,51.77
2022-08-05T11:22:43.532Z,54.12
2022-08-05T11:26:04.486Z,51.05
2022-08-05T11:28:38.465Z,51.26
2022-08-05T11:31:06.854Z,50.91
2022-08-05T11:33:53.395Z,50.84
2022-08-05T11:36:52.835Z,50.34
2022-08-05T11:40:00.678Z,51.52
2022-08-05T11:42:37.804Z,49.51
2022-08-05T11:45:14.412Z,50.14
2022-08-05T11:47:55.378Z,51.01
2022-08-05T11:50:23.746Z,49.85
2022-08-05T11:52:57.745Z,50.07
2022-08-05T11:55:32.054Z,51.45
2022-08-05T11:58:08.515Z,51.78
2022-08-05T12:00:41.381Z,52.30
2022-08-05T12:03:23.957Z,51.93
2022-08-05T12:06:05.948Z,50.04
2022-08-05T12:08:52.540Z,51.32
2022-08-05T12:11:28.096Z,48.67
2022-08-05T12:14:04.518Z,48.59
2022-08-05T12:16:45.600Z,51.37
2022-08-05T12:20:27.152Z,49.85
2022-08-05T12:22:09.593Z,51.25
2022-08-05T12:24:49.716Z,50.64
2022-08-05T12:27:32.773Z,48.27
2022-08-05T12:30:15.485Z,47.69
2022-08-05T12:32:54.429Z,45.27
2022-08-05T12:35:37.234Z,47.07
2022-08-05T12:38:08.312Z,46.84
2022-08-05T12:40:40.054Z,47.86
2022-08-05T12:43:12.575Z,47.58
2022-08-05T12:45:56.608Z,47.71
2022-08-05T12:48:32.198Z,48.00
2022-08-05T12:52:10.924Z,48.02
2022-08-05T12:54:16.691Z,46.75
2022-08-05T12:56:55.526Z,45.79
2022-08-05T13:00:09.075Z,46.42
2022-08-05T13:02:27.294Z,46.74
2022-08-05T13:04:58.953Z,46.24
2022-08-05T13:07:57.504Z,46.76
2022-08-05T13:10:19.861Z,46.81
2022-08-05T13:12:57.128Z,47.37
2022-08-05T13:15:41.402Z,46.97
2022-08-05T13:18:20.556Z,46.39
2022-08-05T13:20:49.819Z,47.45
2022-08-05T13:23:22.477Z,49.16
2022-08-05T13:25:58.943Z,46.56
2022-08-05T13:28:28.890Z,47.90
2022-08-05T13:30:57.281Z,44.80
2022-08-05T13:34:22.896Z,46.17
2022-08-05T13:36:14.695Z,47.41
2022-08-05T13:38:43.330Z,46.99
2022-08-05T13:41:12.513Z,48.56
2022-08-05T13:43:44.331Z,48.35
2022-08-05T13:46:43.808Z,49.04
2022-08-05T13:49:14.507Z,48.49
2022-08-05T13:51:46.408Z,47.26
2022-08-05T13:54:21.256Z,46.46
2022-08-05T13:56:53.923Z,46.81
2022-08-05T13:59:25.320Z,45.94
2022-08-05T14:01:59.836Z,46.46
2022-08-05T14:05:00.667Z,47.40
2022-08-05T14:08:02.652Z,47.11
2022-08-05T14:10:31.044Z,45.05
2022-08-05T14:12:59.992Z,48.02
2022-08-05T14:16:06.972Z,46.25
2022-08-05T14:18:23.222Z,46.64
2022-08-05T14:20:54.760Z,46.23
2022-08-05T14:23:25.433Z,48.21
2022-08-05T14:25:59.031Z,46.99
2022-08-05T14:28:31.257Z,48.01
2022-08-05T14:31:01.517Z,47.29
2022-08-05T14:33:32.678Z,47.72
2022-08-05T14:36:22.511Z,47.38
2022-08-05T14:38:51.391Z,46.56
2022-08-05T14:41:19.514Z,46.64
2022-08-05T14:44:00.283Z,45.88
2022-08-05T14:46:35.037Z,46.34
2022-08-05T14:49:08.142Z,45.96
2022-08-05T14:51:38.033Z,46.47
2022-08-05T14:54:27.466Z,47.05
2022-08-05T14:56:56.580Z,46.40
2022-08-05T14:59:29.811Z,46.20
2022-08-05T15:02:14.932Z,46.39
2022-08-05T15:04:53.412Z,47.69
2022-08-05T15:08:05.341Z,47.35
2022-08-05T15:10:10.229Z,48.68
2022-08-05T15:12:57.967Z,48.37
2022-08-05T15:15:55.608Z,48.58
2022-08-05T15:18:17.247Z,48.67
2022-08-05T15:20:47.250Z,47.50
2022-08-05T15:23:15.917Z,47.33
2022-08-05T15:25:52.773Z,46.81
2022-08-05T15:28:27.097Z,46.91
2022-08-05T15:30:56.655Z,47.39
2022-08-05T15:34:18.371Z,46.67
2022-08-05T15:36:17.368Z,47.35
2022-08-05T15:40:58.965Z,46.79
2022-08-05T15:41:55.871Z,48.18
2022-08-05T15:44:30.153Z,47.70
2022-08-05T15:47:01.438Z,47.60
2022-08-05T15:49:48.171Z,47.86
2022-08-05T15:52:52.084Z,49.00
2022-08-05T15:55:16.375Z,50.34
2022-08-05T15:57:49.048Z,50.32
2022-08-05T16:00:26.073Z,49.92
2022-08-05T16:03:07.067Z,49.48
2022-08-05T16:05:35.359Z,49.43
2022-08-05T16:08:07.532Z,49.56
2022-08-05T16:10:36.243Z,50.61
2022-08-05T16:13:04.817Z,50.14
2022-08-05T16:15:33.973Z,50.79
2022-08-05T16:18:04.205Z,51.12
2022-08-05T16:20:32.784Z,51.13
2022-08-05T16:23:01.591Z,51.49
2022-08-05T16:25:33.802Z,51.28
2022-08-05T16:28:09.468Z,51.72
2022-08-05T16:30:38.593Z,52.12
2022-08-05T16:33:07.009Z,53.78
2022-08-05T16:35:42.359Z,53.50
2022-08-05T16:38:23.748Z,54.09
2022-08-05T16:41:00.607Z,53.31
2022-08-05T16:43:35.468Z,53.80
2022-08-05T16:46:23.450Z,53.19
2022-08-05T16:48:53.862Z,53.02
2022-08-05T16:51:24.527Z,54.10
2022-08-05T16:54:05.897Z,53.80
2022-08-05T16:56:42.262Z,53.55
2022-08-05T16:59:10.868Z,52.96
2022-08-05T17:01:53.614Z,52.48
2022-08-05T17:04:27.424Z,51.93
2022-08-05T17:07:01.104Z,53.30
2022-08-05T17:09:39.033Z,52.41
2022-08-05T17:12:22.741Z,53.00
2022-08-05T17:15:09.682Z,53.24
2022-08-05T17:17:44.574Z,52.83
2022-08-05T17:20:14.772Z,52.78
2022-08-05T17:22:44.909Z,53.51
2022-08-05T17:25:33.379Z,54.09
2022-08-05T17:28:01.932Z,54.60
2022-08-05T17:30:30.665Z,54.90
2022-08-05T17:32:58.692Z,57.69
2022-08-05T17:35:27.066Z,58.63
2022-08-05T17:38:17.457Z,59.64
2022-08-05T17:40:46.337Z,60.90
2022-08-05T17:43:15.872Z,64.07
2022-08-05T17:45:44.544Z,64.80
2022-08-05T17:48:13.076Z,66.73
2022-08-05T17:50:44.179Z,69.34
2022-08-05T17:53:12.212Z,72.87
2022-08-05T17:55:40.347Z,74.13
2022-08-05T17:58:13.386Z,76.67
2022-08-05T18:00:50.728Z,80.56
2022-08-05T18:03:48.393Z,88.61
2022-08-05T18:06:11.009Z,92.36
2022-08-05T18:08:44.779Z,92.12
2022-08-05T18:11:24.473Z,94.48
2022-08-05T18:14:13.468Z,97.51
2022-08-05T18:16:47.023Z,97.59
2022-08-05T18:19:23.095Z,100.00
2022-08-05T18:22:09.034Z,100.00
2022-08-05T18:24:40.589Z,100.00
2022-08-05T18:27:12.711Z,100.00
2022-08-05T18:32:32.076Z,100.00
2022-08-05T18:35:01.382Z,100.00
2022-08-05T18:37:33.962Z,100.00
2022-08-05T18:40:34.646Z,100.00
2022-08-05T18:43:04.414Z,100.00
2022-08-05T18:45:41.383Z,100.00
2022-08-05T18:48:11.041Z,100.00
2022-08-05T18:51:01.617Z,100.00
2022-08-05T18:53:50.151Z,100.00
2022-08-05T18:56:21.886Z,100.00
2022-08-05T18:59:00.823Z,100.00
2022-08-05T19:01:33.225Z,100.00
2022-08-05T19:04:01.582Z,100.00
2022-08-05T19:06:44.591Z,100.00
2022-08-05T19:09:13.592Z,100.00
2022-08-05T19:12:01.140Z,100.00
2022-08-05T19:14:59.328Z,100.00
2022-08-05T19:17:20.037Z,100.00
2022-08-05T19:19:50.276Z,100.00
2022-08-05T19:22:18.471Z,100.00
2022-08-05T19:24:56.549Z,100.00
2022-08-05T19:27:27.772Z,100.00
2022-08-05T19:29:58.731Z,100.00
2022-08-05T19:32:27.873Z,100.00
2022-08-05T19:34:57.878Z,100.00
2022-08-05T19:37:29.835Z,100.00
2022-08-05T19:40:08.219Z,100.00
2022-08-05T19:42:39.104Z,100.00
2022-08-05T19:45:08.419Z,100.00
2022-08-05T19:47:43.034Z,100.00
2022-08-05T19:50:12.494Z,100.00
2022-08-05T19:52:40.988Z,100.00
2022-08-05T19:56:12.606Z,100.00
2022-08-05T19:58:14.416Z,100.00
2022-08-05T20:00:47.275Z,100.00
2022-08-05T20:03:16.088Z,100.00
2022-08-05T20:05:51.206Z,100.00
2022-08-05T20:08:24.507Z,100.00
2022-08-05T20:10:54.468Z,100.00
2022-08-05T20:13:54.778Z,100.00
2022-08-05T20:16:12.536Z,100.00
2022-08-05T20:18:48.667Z,100.00
2022-08-05T20:21:25.681Z,100.00
2022-08-05T20:23:59.995Z,100.00
2022-08-05T20:26:29.082Z,100.00
2022-08-05T20:29:00.623Z,100.00
2022-08-05T20:31:42.158Z,100.00
2022-08-05T20:34:20.000Z,100.00
2022-08-05T20:36:48.978Z,100.00
2022-08-05T20:39:18.781Z,100.00
2022-08-05T20:41:48.687Z,100.00
2022-08-05T20:44:29.547Z,100.00
2022-08-05T20:47:06.686Z,100.00
2022-08-05T20:49:41.466Z,100.00
2022-08-05T20:52:12.174Z,100.00
2022-08-05T20:54:42.786Z,100.00
2022-08-05T20:57:14.424Z,100.00
2022-08-05T21:00:11.097Z,100.00
2022-08-05T21:02:31.472Z,100.00
2022-08-05T21:05:01.132Z,100.00
2022-08-05T21:07:50.736Z,100.00
2022-08-05T21:10:21.668Z,100.00
2022-08-05T21:12:57.792Z,100.00
2022-08-05T21:15:38.491Z,100.00
2022-08-05T21:18:06.834Z,100.00
2022-08-05T21:20:35.450Z,100.00
2022-08-05T21:23:04.877Z,100.00
2022-08-05T21:25:34.496Z,100.00
2022-08-05T21:28:04.007Z,100.00
2022-08-05T21:30:32.108Z,100.00
2022-08-05T21:33:01.799Z,100.00
2022-08-05T21:35:55.794Z,100.00
2022-08-05T21:38:19.773Z,100.00
2022-08-05T21:40:48.200Z,100.00
2022-08-05T21:43:24.692Z,100.00
2022-08-05T21:45:57.545Z,100.00
2022-08-05T21:48:29.480Z,100.00
2022-08-05T21:51:00.414Z,100.00
2022-08-05T21:53:28.402Z,100.00
2022-08-05T21:56:06.335Z,100.00
2022-08-05T21:58:48.304Z,100.00
2022-08-05T22:01:27.463Z,100.00
2022-08-05T22:03:56.123Z,100.00
2022-08-05T22:06:35.170Z,100.00
2022-08-05T22:09:14.557Z,100.00
2022-08-05T22:11:46.990Z,100.00
2022-08-05T22:14:37.337Z,100.00
2022-08-05T22:17:07.439Z,100.00
2022-08-05T22:20:01.088Z,100.00
2022-08-05T22:22:26.936Z,100.00
2022-08-05T22:25:27.360Z,100.00
2022-08-05T22:28:09.415Z,100.00
2022-08-05T22:30:56.020Z,100.00
2022-08-05T22:33:56.727Z,100.00
2022-08-05T22:36:18.114Z,100.00
2022-08-05T22:38:48.304Z,100.00
2022-08-05T22:41:26.487Z,100.00
2022-08-05T22:44:09.698Z,100.00
2022-08-05T22:46:41.352Z,100.00
2022-08-05T22:49:23.551Z,100.00
2022-08-05T22:52:07.153Z,100.00
2022-08-05T22:54:40.596Z,100.00
2022-08-05T22:57:17.264Z,100.00
2022-08-05T22:59:53.578Z,100.00
2022-08-05T23:02:29.615Z,100.00
2022-08-05T23:05:01.910Z,100.00
2022-08-05T23:07:45.292Z,100.00
2022-08-05T23:10:20.694Z,100.00
2022-08-05T23:12:55.068Z,100.00
2022-08-05T23:15:34.866Z,100.00
2022-08-05T23:18:06.017Z,100.00
2022-08-05T23:20:40.081Z,100.00
2022-08-05T23:23:11.648Z,100.00
2022-08-05T23:25:52.619Z,100.00
2022-08-05T23:28:28.676Z,100.00
2022-08-05T23:31:15.853Z,100.00
2022-08-05T23:34:05.355Z,100.00
2022-08-05T23:36:38.411Z,100.00
2022-08-05T23:39:07.473Z,100.00
2022-08-05T23:41:37.264Z,100.00
2022-08-05T23:44:09.604Z,100.00
2022-08-05T23:46:39.312Z,100.00
2022-08-05T23:49:16.217Z,100.00
2022-08-05T23:52:05.740Z,100.00
2022-08-05T23:54:38.337Z,100.00
2022-08-05T23:57:08.335Z,100.00
